Time;durP1;ratioP1;P1;durP2;ratioP2;P2;SDS_P1;SDS_P2;PMS_P1;PMS_P2;Temp;Humidity;BMP_temperature;BMP_pressure;BME280_temperature;BME280_humidity;BME280_pressure;Samples;Min_cycle;Max_cycle;Signal;HPM_P1;HPM_P2
2022/01/30 00:02:21;;;;;;;;;129.75;96.50;;;;;;;;5020663;28;51050;-54
2022/01/30 00:05:06;;;;;;;;;116.75;88.50;;;;;;;;5019881;28;52437;-57
2022/01/30 00:07:50;;;;;;;;;120.75;99.00;;;;;;;;5018499;28;51150;-52
2022/01/30 00:10:39;;;;;;;;;134.75;98.75;;;;;;;;5020257;28;51198;-55
2022/01/30 00:13:26;;;;;;;;;137.25;102.25;;;;;;;;5004009;28;51166;-57
2022/01/30 00:16:11;;;;;;;;;119.25;78.25;;;;;;;;5004366;28;51195;-53
2022/01/30 00:21:45;;;;;;;;;136.00;97.00;;;;;;;;5018662;28;51106;-56
2022/01/30 00:24:48;;;;;;;;;129.75;99.50;;;;;;;;5016059;28;51101;-55
2022/01/30 00:27:45;;;;;;;;;131.25;94.50;;;;;;;;5019906;28;51144;-56
2022/01/30 00:30:34;;;;;;;;;141.00;105.25;;;;;;;;5017973;28;51015;-57
2022/01/30 00:33:18;;;;;;;;;146.75;101.25;;;;;;;;5020528;28;51032;-56
2022/01/30 00:36:03;;;;;;;;;124.50;95.50;;;;;;;;5020055;28;51515;-57
2022/01/30 00:38:47;;;;;;;;;131.75;100.75;;;;;;;;5020798;28;51196;-55
2022/01/30 00:41:31;;;;;;;;;136.50;97.50;;;;;;;;5020741;28;51572;-54
2022/01/30 00:44:15;;;;;;;;;142.50;103.25;;;;;;;;5020334;28;51082;-55
2022/01/30 00:47:03;;;;;;;;;141.50;94.75;;;;;;;;5020395;28;51086;-53
2022/01/30 00:49:47;;;;;;;;;142.75;101.75;;;;;;;;5018940;28;51404;-54
2022/01/30 00:52:31;;;;;;;;;148.25;104.25;;;;;;;;5019963;28;51185;-54
2022/01/30 00:55:16;;;;;;;;;147.50;107.75;;;;;;;;5017565;28;51122;-53
2022/01/30 00:58:02;;;;;;;;;152.25;103.00;;;;;;;;5020277;28;51056;-51
2022/01/30 01:00:46;;;;;;;;;148.25;108.75;;;;;;;;5019201;28;51239;-55
2022/01/30 01:03:30;;;;;;;;;145.50;106.25;;;;;;;;5018918;28;51173;-54
2022/01/30 01:06:15;;;;;;;;;158.50;115.75;;;;;;;;5018934;28;51055;-52
2022/01/30 01:09:02;;;;;;;;;156.00;119.75;;;;;;;;5019940;28;51446;-55
2022/01/30 01:23:45;;;;;;;;;153.50;125.50;;;;;;;;5019760;28;51152;-56
2022/01/30 01:26:29;;;;;;;;;157.75;125.50;;;;;;;;5014732;28;51515;-56
2022/01/30 01:29:15;;;;;;;;;157.00;126.25;;;;;;;;5016859;28;51105;-56
2022/01/30 01:31:59;;;;;;;;;153.00;118.25;;;;;;;;5011622;28;51063;-57
2022/01/30 01:34:44;;;;;;;;;154.25;121.50;;;;;;;;5018348;28;51484;-55
2022/01/30 01:37:28;;;;;;;;;145.25;114.00;;;;;;;;5017240;28;51206;-55
2022/01/30 01:40:12;;;;;;;;;170.75;119.00;;;;;;;;5019784;28;51318;-57
2022/01/30 01:43:01;;;;;;;;;154.00;118.00;;;;;;;;5018876;28;51152;-53
2022/01/30 01:45:47;;;;;;;;;155.50;120.75;;;;;;;;5019600;28;51092;-56
2022/01/30 01:48:34;;;;;;;;;148.50;116.75;;;;;;;;5019466;28;51098;-54
2022/01/30 01:51:21;;;;;;;;;161.75;119.50;;;;;;;;5019892;28;51463;-56
2022/01/30 01:54:06;;;;;;;;;165.75;123.00;;;;;;;;5019224;28;51077;-57
2022/01/30 01:56:50;;;;;;;;;171.00;121.75;;;;;;;;5019798;28;51079;-52
2022/01/30 01:59:34;;;;;;;;;160.50;120.25;;;;;;;;5017830;28;51402;-56
2022/01/30 02:02:20;;;;;;;;;150.25;116.50;;;;;;;;5018345;28;51179;-53
2022/01/30 02:05:06;;;;;;;;;149.50;115.25;;;;;;;;5019164;28;51087;-55
2022/01/30 02:10:52;;;;;;;;;150.25;112.50;;;;;;;;5019554;28;51101;-56
2022/01/30 02:14:03;;;;;;;;;144.00;112.00;;;;;;;;5015783;28;51117;-55
2022/01/30 02:26:01;;;;;;;;;158.25;114.75;;;;;;;;5014320;28;51360;-54
2022/01/30 02:28:45;;;;;;;;;132.00;93.00;;;;;;;;5016667;28;51132;-52
2022/01/30 02:31:34;;;;;;;;;154.50;116.50;;;;;;;;5009873;28;51193;-53
2022/01/30 02:34:18;;;;;;;;;144.25;111.25;;;;;;;;5011031;28;51135;-50
2022/01/30 02:37:04;;;;;;;;;150.00;117.25;;;;;;;;5010446;28;51445;-52
2022/01/30 02:39:48;;;;;;;;;159.75;123.25;;;;;;;;5013971;28;51199;-53
2022/01/30 02:42:35;;;;;;;;;151.25;118.25;;;;;;;;5014867;28;51078;-55
2022/01/30 02:45:22;;;;;;;;;152.50;115.00;;;;;;;;5015481;28;51118;-54
2022/01/30 02:53:40;;;;;;;;;155.50;109.50;;;;;;;;5018851;28;51156;-56
2022/01/30 02:56:24;;;;;;;;;129.25;104.75;;;;;;;;5017135;28;51098;-55
2022/01/30 02:59:09;;;;;;;;;141.75;109.50;;;;;;;;5015240;28;51043;-54
2022/01/30 03:01:53;;;;;;;;;150.25;112.50;;;;;;;;5007913;28;51350;-52
2022/01/30 03:04:40;;;;;;;;;128.50;110.00;;;;;;;;5012263;28;51163;-53
2022/01/30 03:07:24;;;;;;;;;153.50;121.50;;;;;;;;5013376;28;51144;-51
2022/01/30 03:10:10;;;;;;;;;141.75;98.25;;;;;;;;5016916;28;51151;-53
2022/01/30 03:12:55;;;;;;;;;150.50;112.75;;;;;;;;5011099;28;51601;-51
2022/01/30 03:15:39;;;;;;;;;137.00;105.00;;;;;;;;5013715;28;51326;-54
2022/01/30 03:18:23;;;;;;;;;146.25;103.25;;;;;;;;5015564;28;51215;-55
2022/01/30 03:21:08;;;;;;;;;140.50;107.75;;;;;;;;5017941;28;51329;-56
2022/01/30 03:23:52;;;;;;;;;139.00;107.75;;;;;;;;5018678;28;51458;-54
2022/01/30 03:26:39;;;;;;;;;146.50;106.25;;;;;;;;5020400;28;51196;-51
2022/01/30 03:29:23;;;;;;;;;145.25;109.25;;;;;;;;5018844;28;51068;-54
2022/01/30 03:32:08;;;;;;;;;141.00;96.25;;;;;;;;5020844;28;51078;-54
2022/01/30 03:34:52;;;;;;;;;125.00;102.50;;;;;;;;5016713;28;51567;-53
2022/01/30 03:37:36;;;;;;;;;142.50;102.50;;;;;;;;5017944;28;51130;-55
2022/01/30 03:40:21;;;;;;;;;139.25;103.75;;;;;;;;5016765;28;51514;-51
2022/01/30 03:43:05;;;;;;;;;129.00;109.00;;;;;;;;5016094;28;51086;-54
2022/01/30 03:45:50;;;;;;;;;149.50;104.75;;;;;;;;5015152;28;51257;-53
2022/01/30 03:48:34;;;;;;;;;132.50;97.00;;;;;;;;5017695;28;51287;-55
2022/01/30 03:51:19;;;;;;;;;131.00;100.25;;;;;;;;5014072;28;51122;-56
2022/01/30 03:54:03;;;;;;;;;153.50;112.25;;;;;;;;5013747;28;51473;-55
2022/01/30 03:56:47;;;;;;;;;151.50;115.50;;;;;;;;5013796;28;51529;-55
2022/01/30 03:59:32;;;;;;;;;166.75;116.75;;;;;;;;5011681;28;51113;-56
2022/01/30 04:02:16;;;;;;;;;158.25;115.75;;;;;;;;5017050;28;51196;-53
2022/01/30 04:05:01;;;;;;;;;163.75;122.50;;;;;;;;5017200;28;51171;-56
2022/01/30 04:07:46;;;;;;;;;168.50;121.00;;;;;;;;5013494;28;51098;-54
2022/01/30 04:10:31;;;;;;;;;156.75;117.75;;;;;;;;5015631;28;51260;-53
2022/01/30 04:13:15;;;;;;;;;172.75;130.75;;;;;;;;5016851;28;51077;-55
2022/01/30 04:16:00;;;;;;;;;163.75;121.50;;;;;;;;5016879;28;51106;-51
2022/01/30 04:18:44;;;;;;;;;170.75;124.50;;;;;;;;5016317;28;51332;-55
2022/01/30 04:21:29;;;;;;;;;153.00;110.25;;;;;;;;5017330;28;51330;-53
2022/01/30 04:24:13;;;;;;;;;160.75;125.25;;;;;;;;5019330;28;51219;-55
2022/01/30 04:26:57;;;;;;;;;179.50;128.75;;;;;;;;5018574;28;51140;-57
2022/01/30 04:29:42;;;;;;;;;163.25;122.50;;;;;;;;5018911;28;51157;-53
2022/01/30 04:32:27;;;;;;;;;164.50;125.00;;;;;;;;5019361;28;51120;-56
2022/01/30 04:35:16;;;;;;;;;157.25;124.25;;;;;;;;5019544;28;51295;-55
2022/01/30 04:38:15;;;;;;;;;142.00;115.25;;;;;;;;5019183;28;51059;-56
2022/01/30 04:41:23;;;;;;;;;153.00;118.00;;;;;;;;5020289;28;51494;-50
2022/01/30 04:53:26;;;;;;;;;170.75;130.75;;;;;;;;5018549;28;51607;-54
2022/01/30 04:59:18;;;;;;;;;169.75;129.00;;;;;;;;5019103;28;51228;-55
2022/01/30 05:02:13;;;;;;;;;155.75;118.00;;;;;;;;5014604;28;51108;-53
2022/01/30 05:05:25;;;;;;;;;155.00;118.75;;;;;;;;5017450;28;51202;-55
2022/01/30 05:08:08;;;;;;;;;156.25;119.50;;;;;;;;5019951;28;51734;-53
2022/01/30 05:10:53;;;;;;;;;100.25;59.75;;;;;;;;5017805;28;51153;-53
2022/01/30 05:13:43;;;;;;;;;156.75;123.75;;;;;;;;5020176;28;51162;-53
2022/01/30 05:16:30;;;;;;;;;157.50;115.00;;;;;;;;5016218;28;51133;-56
2022/01/30 05:19:15;;;;;;;;;150.75;106.50;;;;;;;;5019313;28;51331;-53
2022/01/30 05:21:59;;;;;;;;;160.00;119.25;;;;;;;;5015850;28;51204;-56
2022/01/30 05:24:44;;;;;;;;;156.25;116.50;;;;;;;;5019561;28;51208;-56
2022/01/30 05:27:28;;;;;;;;;160.50;121.25;;;;;;;;5014923;28;51290;-55
2022/01/30 05:30:12;;;;;;;;;156.50;120.75;;;;;;;;5016253;28;51032;-55
2022/01/30 05:32:57;;;;;;;;;143.75;114.00;;;;;;;;5013983;28;51232;-54
2022/01/30 05:35:41;;;;;;;;;163.00;126.00;;;;;;;;5010330;28;51266;-54
2022/01/30 05:38:25;;;;;;;;;151.75;127.00;;;;;;;;5013756;28;51102;-55
2022/01/30 05:41:10;;;;;;;;;173.25;130.75;;;;;;;;5015162;28;51112;-54
2022/01/30 05:43:58;;;;;;;;;178.75;138.75;;;;;;;;5018672;28;51067;-53
2022/01/30 05:46:51;;;;;;;;;169.25;138.25;;;;;;;;5014480;28;51340;-56
2022/01/30 05:49:36;;;;;;;;;177.25;141.00;;;;;;;;5016194;28;51309;-52
2022/01/30 05:52:24;;;;;;;;;170.25;125.00;;;;;;;;5017217;28;51126;-55
2022/01/30 05:55:08;;;;;;;;;175.00;130.25;;;;;;;;5018706;28;51078;-56
2022/01/30 05:57:53;;;;;;;;;186.00;136.00;;;;;;;;5016448;28;51149;-52
2022/01/30 06:00:37;;;;;;;;;188.50;141.50;;;;;;;;5009734;28;51746;-54
2022/01/30 06:03:22;;;;;;;;;188.50;141.50;;;;;;;;5009966;28;51198;-54
2022/01/30 06:06:08;;;;;;;;;179.75;138.00;;;;;;;;5016316;28;51487;-55
2022/01/30 06:09:11;;;;;;;;;177.75;138.50;;;;;;;;5015275;28;51120;-55
2022/01/30 06:11:55;;;;;;;;;196.00;145.00;;;;;;;;5007574;28;51209;-55
2022/01/30 06:14:40;;;;;;;;;202.00;154.00;;;;;;;;5014324;28;51157;-51
2022/01/30 06:17:24;;;;;;;;;190.00;149.00;;;;;;;;5004278;28;52563;-55
2022/01/30 06:20:09;;;;;;;;;193.25;154.50;;;;;;;;5010592;28;51089;-56
2022/01/30 06:22:54;;;;;;;;;210.75;163.50;;;;;;;;5008892;28;51218;-53
2022/01/30 06:25:38;;;;;;;;;187.50;164.00;;;;;;;;5009295;28;51126;-57
2022/01/30 06:28:23;;;;;;;;;192.25;150.50;;;;;;;;5013611;28;51048;-55
2022/01/30 06:31:07;;;;;;;;;192.50;151.50;;;;;;;;5010654;28;51067;-56
2022/01/30 06:33:52;;;;;;;;;186.25;140.75;;;;;;;;5006967;28;51051;-54
2022/01/30 06:36:36;;;;;;;;;187.50;141.75;;;;;;;;4997558;28;51075;-54
2022/01/30 06:39:20;;;;;;;;;176.00;143.00;;;;;;;;5013680;28;51055;-55
2022/01/30 06:42:05;;;;;;;;;190.25;156.00;;;;;;;;5011630;28;52089;-53
2022/01/30 06:44:50;;;;;;;;;188.00;137.75;;;;;;;;5008631;28;51240;-51
2022/01/30 06:47:43;;;;;;;;;191.50;140.75;;;;;;;;5010869;28;51467;-54
2022/01/30 06:50:28;;;;;;;;;158.00;125.25;;;;;;;;5013302;28;51365;-53
2022/01/30 06:53:12;;;;;;;;;158.00;126.25;;;;;;;;5014948;28;51520;-56
2022/01/30 06:55:57;;;;;;;;;163.50;124.25;;;;;;;;5011825;28;51179;-54
2022/01/30 06:58:41;;;;;;;;;170.75;123.00;;;;;;;;5013227;28;51129;-54
2022/01/30 07:01:26;;;;;;;;;152.25;122.25;;;;;;;;5015683;28;51389;-52
2022/01/30 07:04:10;;;;;;;;;143.75;112.00;;;;;;;;5015416;28;51091;-55
2022/01/30 07:06:54;;;;;;;;;156.50;124.25;;;;;;;;5015734;28;51177;-53
2022/01/30 07:09:39;;;;;;;;;131.75;88.50;;;;;;;;5002249;28;51300;-53
2022/01/30 07:12:23;;;;;;;;;149.00;112.75;;;;;;;;5010315;28;51578;-54
2022/01/30 07:15:08;;;;;;;;;146.25;110.00;;;;;;;;5017055;28;51141;-56
2022/01/30 07:17:52;;;;;;;;;135.00;105.25;;;;;;;;5016630;28;51064;-57
2022/01/30 07:20:37;;;;;;;;;171.50;114.75;;;;;;;;5017111;28;51185;-55
2022/01/30 07:23:21;;;;;;;;;136.50;105.75;;;;;;;;5017698;28;51109;-55
2022/01/30 07:26:05;;;;;;;;;153.50;113.25;;;;;;;;5015022;28;51125;-57
2022/01/30 07:28:50;;;;;;;;;136.00;101.00;;;;;;;;5011752;28;51320;-55
2022/01/30 07:31:34;;;;;;;;;164.75;115.25;;;;;;;;5010021;28;51135;-52
2022/01/30 07:34:22;;;;;;;;;159.00;121.25;;;;;;;;5011730;28;51162;-55
2022/01/30 07:37:08;;;;;;;;;160.50;109.25;;;;;;;;5017710;28;51508;-55
2022/01/30 07:39:53;;;;;;;;;155.50;116.50;;;;;;;;5011094;28;51156;-56
2022/01/30 07:42:37;;;;;;;;;142.50;112.00;;;;;;;;5025204;28;51773;-53
2022/01/30 07:45:24;;;;;;;;;165.00;123.50;;;;;;;;5020967;28;51059;-48
2022/01/30 07:48:08;;;;;;;;;146.25;114.25;;;;;;;;5019471;28;51416;-49
2022/01/30 07:50:52;;;;;;;;;170.75;137.75;;;;;;;;5021414;28;51055;-49
2022/01/30 07:53:37;;;;;;;;;156.25;122.00;;;;;;;;5021247;28;51151;-50
2022/01/30 07:56:23;;;;;;;;;160.00;121.25;;;;;;;;5021167;28;52402;-47
2022/01/30 07:59:07;;;;;;;;;162.25;121.50;;;;;;;;5018990;28;51176;-47
2022/01/30 08:01:53;;;;;;;;;178.50;138.50;;;;;;;;5019072;28;51238;-50
2022/01/30 08:04:38;;;;;;;;;178.00;135.25;;;;;;;;5020932;28;51033;-48
2022/01/30 08:07:23;;;;;;;;;190.25;148.00;;;;;;;;5020611;28;51205;-52
2022/01/30 08:10:07;;;;;;;;;193.75;148.75;;;;;;;;5020874;28;51105;-47
2022/01/30 08:12:52;;;;;;;;;166.75;127.75;;;;;;;;5021022;28;51054;-51
2022/01/30 08:15:36;;;;;;;;;183.00;130.50;;;;;;;;5020673;28;51125;-48
2022/01/30 08:18:20;;;;;;;;;163.75;130.50;;;;;;;;5020757;28;51129;-48
2022/01/30 08:21:05;;;;;;;;;168.75;129.00;;;;;;;;5020369;28;51172;-50
2022/01/30 08:23:50;;;;;;;;;165.50;127.75;;;;;;;;5019602;28;51129;-47
2022/01/30 08:26:34;;;;;;;;;136.75;98.25;;;;;;;;5020328;28;51161;-48
2022/01/30 08:29:19;;;;;;;;;158.00;119.00;;;;;;;;5020726;28;51178;-48
2022/01/30 08:32:04;;;;;;;;;151.50;110.00;;;;;;;;5005088;28;50991;-48
2022/01/30 08:34:49;;;;;;;;;141.50;102.50;;;;;;;;5019946;28;51210;-47
2022/01/30 08:37:35;;;;;;;;;166.00;124.00;;;;;;;;5020748;28;51142;-49
2022/01/30 08:40:20;;;;;;;;;162.25;124.25;;;;;;;;5018866;28;51475;-50
2022/01/30 08:43:05;;;;;;;;;161.25;122.00;;;;;;;;5019961;28;51433;-47
2022/01/30 08:45:50;;;;;;;;;162.00;119.75;;;;;;;;5019726;28;51213;-49
2022/01/30 08:48:35;;;;;;;;;160.25;117.00;;;;;;;;5020205;28;51122;-48
2022/01/30 08:51:21;;;;;;;;;133.50;103.00;;;;;;;;5019586;28;51119;-48
2022/01/30 08:54:05;;;;;;;;;163.00;115.00;;;;;;;;5020092;28;51174;-49
2022/01/30 08:56:49;;;;;;;;;144.00;104.75;;;;;;;;5019835;28;51156;-49
2022/01/30 08:59:33;;;;;;;;;136.50;101.75;;;;;;;;5018068;28;51417;-49
2022/01/30 09:02:19;;;;;;;;;124.75;90.25;;;;;;;;5020529;28;51165;-50
2022/01/30 09:05:04;;;;;;;;;115.25;99.75;;;;;;;;5019626;28;52023;-49
2022/01/30 09:07:49;;;;;;;;;121.00;95.00;;;;;;;;5019640;28;51390;-49
2022/01/30 09:10:34;;;;;;;;;117.25;87.00;;;;;;;;5018056;28;51098;-49
2022/01/30 09:13:18;;;;;;;;;104.00;76.75;;;;;;;;5019304;28;51202;-49
2022/01/30 09:16:03;;;;;;;;;125.25;91.25;;;;;;;;5019733;28;51483;-49
2022/01/30 09:18:47;;;;;;;;;102.25;79.00;;;;;;;;5019881;28;51137;-48
2022/01/30 09:21:32;;;;;;;;;112.25;85.00;;;;;;;;5019726;28;51204;-48
2022/01/30 09:24:16;;;;;;;;;103.50;83.50;;;;;;;;5019468;28;52111;-51
2022/01/30 09:27:01;;;;;;;;;112.75;75.25;;;;;;;;5019663;28;51121;-49
2022/01/30 09:29:45;;;;;;;;;102.25;71.75;;;;;;;;5019641;28;51343;-48
2022/01/30 09:32:30;;;;;;;;;93.25;72.75;;;;;;;;5019467;28;51535;-50
2022/01/30 09:35:14;;;;;;;;;116.50;79.50;;;;;;;;5019005;28;52572;-49
2022/01/30 09:37:58;;;;;;;;;101.50;77.75;;;;;;;;5019870;28;51065;-51
2022/01/30 09:40:43;;;;;;;;;76.25;60.00;;;;;;;;5019264;28;51010;-49
2022/01/30 09:43:28;;;;;;;;;80.75;59.50;;;;;;;;5019351;28;51115;-48
2022/01/30 09:46:15;;;;;;;;;108.75;69.25;;;;;;;;5019100;28;51131;-52
2022/01/30 09:49:00;;;;;;;;;115.25;81.00;;;;;;;;5017964;28;51091;-50
2022/01/30 09:51:45;;;;;;;;;100.25;67.25;;;;;;;;5017344;28;51055;-49
2022/01/30 09:54:29;;;;;;;;;93.50;78.00;;;;;;;;5016754;28;51810;-52
2022/01/30 09:57:14;;;;;;;;;107.25;87.25;;;;;;;;5023637;28;52203;-51
2022/01/30 09:59:58;;;;;;;;;94.25;76.00;;;;;;;;5014637;28;51078;-50
2022/01/30 10:02:43;;;;;;;;;87.25;56.50;;;;;;;;5017923;28;51063;-53
2022/01/30 10:05:33;;;;;;;;;96.25;71.50;;;;;;;;5018190;28;51502;-52
2022/01/30 10:08:28;;;;;;;;;106.00;80.50;;;;;;;;5017955;28;51115;-51
2022/01/30 10:11:34;;;;;;;;;105.00;83.25;;;;;;;;5016263;28;51528;-49
2022/01/30 10:14:18;;;;;;;;;109.75;80.75;;;;;;;;5017683;28;51178;-48
2022/01/30 10:17:02;;;;;;;;;95.75;74.25;;;;;;;;5015640;28;51167;-49
2022/01/30 10:19:51;;;;;;;;;100.25;73.25;;;;;;;;5017719;28;51554;-48
2022/01/30 10:22:55;;;;;;;;;95.50;77.25;;;;;;;;5002181;28;51552;-51
2022/01/30 10:25:48;;;;;;;;;108.50;75.75;;;;;;;;5017649;28;51109;-50
2022/01/30 10:28:33;;;;;;;;;101.25;77.25;;;;;;;;5018852;28;51181;-48
2022/01/30 10:31:18;;;;;;;;;97.50;75.75;;;;;;;;5018628;28;51095;-52
2022/01/30 10:34:04;;;;;;;;;114.75;82.50;;;;;;;;5018797;28;51110;-51
2022/01/30 10:36:48;;;;;;;;;120.25;81.75;;;;;;;;5018450;28;51130;-49
2022/01/30 10:39:51;;;;;;;;;102.50;76.25;;;;;;;;5017021;28;51347;-53
2022/01/30 10:42:49;;;;;;;;;118.75;85.00;;;;;;;;5016355;28;51122;-49
2022/01/30 10:45:33;;;;;;;;;101.25;78.00;;;;;;;;5014967;28;51202;-48
2022/01/30 10:48:18;;;;;;;;;98.00;77.50;;;;;;;;5017845;28;51625;-50
2022/01/30 10:51:10;;;;;;;;;97.75;71.50;;;;;;;;5014674;28;51162;-48
2022/01/30 10:53:56;;;;;;;;;86.50;69.50;;;;;;;;5016567;28;51205;-47
2022/01/30 10:56:40;;;;;;;;;103.00;78.25;;;;;;;;5018243;28;51325;-48
2022/01/30 10:59:24;;;;;;;;;98.25;76.75;;;;;;;;5017432;28;51115;-50
2022/01/30 11:02:16;;;;;;;;;116.75;82.00;;;;;;;;5017063;28;51406;-50
2022/01/30 11:05:02;;;;;;;;;106.25;73.50;;;;;;;;5017781;28;51074;-52
2022/01/30 11:07:49;;;;;;;;;101.25;72.50;;;;;;;;5018332;28;51122;-48
2022/01/30 11:10:34;;;;;;;;;93.50;70.00;;;;;;;;5015289;28;51449;-49
2022/01/30 11:13:31;;;;;;;;;88.75;57.25;;;;;;;;5017774;28;51050;-50
2022/01/30 11:19:20;;;;;;;;;113.00;76.25;;;;;;;;5016050;28;51632;-55
2022/01/30 11:22:12;;;;;;;;;103.75;73.75;;;;;;;;5015974;28;51207;-55
2022/01/30 11:25:02;;;;;;;;;122.50;85.75;;;;;;;;5014151;28;51387;-52
2022/01/30 11:27:48;;;;;;;;;113.25;84.25;;;;;;;;5018014;28;51521;-53
2022/01/30 11:30:32;;;;;;;;;105.75;72.75;;;;;;;;5017449;28;51142;-52
2022/01/30 11:33:16;;;;;;;;;97.00;68.50;;;;;;;;5018542;28;51150;-49
2022/01/30 11:36:01;;;;;;;;;105.00;74.00;;;;;;;;5020314;28;51494;-54
2022/01/30 11:38:46;;;;;;;;;101.50;72.50;;;;;;;;5021987;28;51512;-50
2022/01/30 11:41:31;;;;;;;;;98.75;72.75;;;;;;;;5021802;28;51198;-51
2022/01/30 11:44:18;;;;;;;;;90.50;65.25;;;;;;;;5021600;28;51145;-53
2022/01/30 11:47:03;;;;;;;;;79.75;53.00;;;;;;;;5021093;28;51110;-49
2022/01/30 11:49:48;;;;;;;;;85.50;60.50;;;;;;;;5019626;28;51111;-50
2022/01/30 11:52:50;;;;;;;;;91.50;57.50;;;;;;;;5021024;28;51560;-52
2022/01/30 11:55:50;;;;;;;;;96.50;62.25;;;;;;;;5020837;28;51170;-54
2022/01/30 11:58:39;;;;;;;;;91.00;62.00;;;;;;;;5020884;28;51138;-50
2022/01/30 12:01:26;;;;;;;;;86.00;58.25;;;;;;;;5018907;28;51160;-50
2022/01/30 12:04:11;;;;;;;;;83.75;58.00;;;;;;;;5018889;28;51099;-52
2022/01/30 12:06:56;;;;;;;;;89.25;62.50;;;;;;;;5021160;28;51098;-49
2022/01/30 12:09:40;;;;;;;;;77.50;53.00;;;;;;;;5020221;28;51063;-48
2022/01/30 12:12:44;;;;;;;;;86.50;61.00;;;;;;;;5020945;28;51405;-50
2022/01/30 12:15:39;;;;;;;;;101.75;61.25;;;;;;;;5021025;28;51175;-52
2022/01/30 12:18:43;;;;;;;;;81.50;58.75;;;;;;;;5020079;28;51753;-50
2022/01/30 12:21:28;;;;;;;;;90.00;62.50;;;;;;;;5020525;28;51148;-50
2022/01/30 12:24:22;;;;;;;;;85.75;58.25;;;;;;;;5020672;28;50953;-52
2022/01/30 12:27:07;;;;;;;;;87.75;59.50;;;;;;;;5017364;28;51130;-52
2022/01/30 12:29:51;;;;;;;;;72.50;49.25;;;;;;;;5020336;28;51174;-50
2022/01/30 12:32:36;;;;;;;;;85.75;61.75;;;;;;;;5020386;28;51098;-55
2022/01/30 12:35:20;;;;;;;;;75.50;51.50;;;;;;;;5020446;28;51028;-54
2022/01/30 12:38:05;;;;;;;;;70.25;50.50;;;;;;;;5017627;28;51208;-52
2022/01/30 12:40:49;;;;;;;;;74.00;44.00;;;;;;;;5018848;28;51907;-52
2022/01/30 12:43:34;;;;;;;;;79.75;50.00;;;;;;;;5017603;28;51205;-53
2022/01/30 12:46:18;;;;;;;;;80.25;56.25;;;;;;;;5014632;28;52398;-51
2022/01/30 12:49:06;;;;;;;;;81.50;59.25;;;;;;;;5016964;28;51106;-53
2022/01/30 12:51:51;;;;;;;;;83.00;56.75;;;;;;;;5015507;28;51058;-52
2022/01/30 12:54:40;;;;;;;;;92.75;64.75;;;;;;;;5017955;28;51410;-51
2022/01/30 12:57:25;;;;;;;;;77.50;56.00;;;;;;;;5014782;28;51155;-51
2022/01/30 13:00:10;;;;;;;;;86.50;57.50;;;;;;;;5018234;28;51139;-52
2022/01/30 13:02:58;;;;;;;;;79.50;55.50;;;;;;;;5014973;28;51472;-49
2022/01/30 13:05:43;;;;;;;;;81.25;58.00;;;;;;;;5020312;28;51487;-56
2022/01/30 13:08:47;;;;;;;;;92.50;60.00;;;;;;;;5019259;28;51522;-54
2022/01/30 13:11:32;;;;;;;;;78.75;55.75;;;;;;;;5011300;28;51079;-50
2022/01/30 13:14:17;;;;;;;;;76.75;52.00;;;;;;;;5018586;28;51320;-52
2022/01/30 13:17:02;;;;;;;;;89.25;55.75;;;;;;;;5012029;28;51659;-52
2022/01/30 13:19:46;;;;;;;;;82.50;57.50;;;;;;;;5011494;28;51189;-54
2022/01/30 13:22:36;;;;;;;;;77.75;50.50;;;;;;;;5015977;28;51447;-54
2022/01/30 13:25:21;;;;;;;;;85.25;62.50;;;;;;;;5010671;28;51135;-53
2022/01/30 13:28:05;;;;;;;;;80.75;55.50;;;;;;;;5010672;28;51105;-52
2022/01/30 13:30:49;;;;;;;;;81.00;63.50;;;;;;;;5009558;28;51485;-51
2022/01/30 13:33:34;;;;;;;;;96.50;62.00;;;;;;;;5021722;28;51448;-51
2022/01/30 13:36:22;;;;;;;;;93.25;65.50;;;;;;;;5016917;28;51111;-51
2022/01/30 13:39:12;;;;;;;;;85.75;60.00;;;;;;;;5015369;28;51144;-56
2022/01/30 13:42:24;;;;;;;;;83.25;60.50;;;;;;;;5012243;28;51119;-53
2022/01/30 13:48:10;;;;;;;;;83.25;64.25;;;;;;;;5016378;28;51074;-53
2022/01/30 13:51:05;;;;;;;;;93.50;68.75;;;;;;;;5019917;28;51221;-51
2022/01/30 13:54:03;;;;;;;;;98.75;68.25;;;;;;;;5000368;28;51098;-54
2022/01/30 13:56:59;;;;;;;;;78.75;62.75;;;;;;;;5014220;28;51185;-49
2022/01/30 13:59:43;;;;;;;;;79.50;60.50;;;;;;;;5012840;28;51784;-55
2022/01/30 14:02:28;;;;;;;;;85.75;60.25;;;;;;;;5010410;28;51225;-54
2022/01/30 14:05:29;;;;;;;;;91.00;64.25;;;;;;;;5013778;28;51254;-51
2022/01/30 14:08:15;;;;;;;;;88.75;62.00;;;;;;;;5014906;28;51256;-53
2022/01/30 14:11:06;;;;;;;;;76.25;54.25;;;;;;;;5014497;28;51188;-54
2022/01/30 14:13:55;;;;;;;;;96.00;66.75;;;;;;;;5014235;28;51071;-52
2022/01/30 14:16:39;;;;;;;;;103.50;70.50;;;;;;;;5017308;28;51224;-52
2022/01/30 14:19:24;;;;;;;;;98.25;70.00;;;;;;;;5016744;28;51983;-50
2022/01/30 14:22:12;;;;;;;;;89.00;58.75;;;;;;;;5016101;28;51102;-54
2022/01/30 14:24:57;;;;;;;;;91.25;63.75;;;;;;;;5016139;28;51170;-52
2022/01/30 14:27:41;;;;;;;;;84.50;61.50;;;;;;;;5016119;28;51102;-54
2022/01/30 14:30:36;;;;;;;;;87.75;66.75;;;;;;;;5017972;28;51065;-51
2022/01/30 14:33:21;;;;;;;;;84.25;61.00;;;;;;;;5017846;28;51106;-51
2022/01/30 14:36:06;;;;;;;;;81.25;56.25;;;;;;;;5016562;28;51134;-55
2022/01/30 14:38:53;;;;;;;;;99.00;67.00;;;;;;;;5016752;28;51167;-52
2022/01/30 14:41:38;;;;;;;;;82.75;64.50;;;;;;;;5017352;28;51078;-51
2022/01/30 14:44:22;;;;;;;;;90.00;63.25;;;;;;;;5016558;28;51523;-52
2022/01/30 14:47:09;;;;;;;;;79.25;58.75;;;;;;;;5018563;28;51160;-55
2022/01/30 14:49:52;;;;;;;;;82.75;60.25;;;;;;;;5018837;28;51167;-53
2022/01/30 14:52:37;;;;;;;;;83.25;58.00;;;;;;;;5017359;28;51075;-54
2022/01/30 14:55:22;;;;;;;;;82.00;58.50;;;;;;;;5017337;28;51359;-50
2022/01/30 14:58:06;;;;;;;;;87.50;58.75;;;;;;;;5017187;28;51365;-48
2022/01/30 15:00:55;;;;;;;;;89.25;61.50;;;;;;;;5009951;28;51570;-49
2022/01/30 15:03:39;;;;;;;;;84.00;58.50;;;;;;;;5010697;28;51173;-54
2022/01/30 15:06:23;;;;;;;;;86.00;55.25;;;;;;;;5014766;28;51166;-53
2022/01/30 15:09:08;;;;;;;;;83.75;58.25;;;;;;;;5015831;28;51935;-51
2022/01/30 15:11:52;;;;;;;;;77.25;60.50;;;;;;;;5004600;28;51009;-54
2022/01/30 15:14:38;;;;;;;;;91.25;64.25;;;;;;;;5020591;28;51181;-53
2022/01/30 15:17:31;;;;;;;;;83.50;60.25;;;;;;;;5019788;28;51132;-55
2022/01/30 15:20:16;;;;;;;;;80.25;61.00;;;;;;;;5021864;28;51181;-53
2022/01/30 15:23:00;;;;;;;;;90.25;59.50;;;;;;;;5019171;28;51075;-53
2022/01/30 15:25:44;;;;;;;;;88.25;61.50;;;;;;;;5018117;28;51242;-51
2022/01/30 15:28:28;;;;;;;;;83.50;58.50;;;;;;;;5021588;28;51145;-53
2022/01/30 15:31:13;;;;;;;;;76.00;55.00;;;;;;;;5020157;28;51051;-49
2022/01/30 15:34:00;;;;;;;;;73.50;55.50;;;;;;;;5021515;28;51043;-51
2022/01/30 15:36:44;;;;;;;;;82.25;62.00;;;;;;;;5020332;28;51136;-53
2022/01/30 15:39:28;;;;;;;;;81.50;59.50;;;;;;;;5018671;28;51288;-55
2022/01/30 15:42:13;;;;;;;;;95.00;60.00;;;;;;;;5019761;28;51281;-54
2022/01/30 15:50:58;;;;;;;;;74.75;54.50;;;;;;;;4991572;28;51594;-54
2022/01/30 15:53:42;;;;;;;;;78.50;59.25;;;;;;;;5017979;28;52227;-55
2022/01/30 15:56:28;;;;;;;;;77.25;59.25;;;;;;;;5019116;28;51128;-54
2022/01/30 15:59:13;;;;;;;;;83.75;65.25;;;;;;;;5020617;28;51509;-54
2022/01/30 16:01:58;;;;;;;;;74.25;53.25;;;;;;;;5020616;28;51187;-52
2022/01/30 16:04:42;;;;;;;;;83.25;57.00;;;;;;;;5020038;28;51212;-53
2022/01/30 16:07:27;;;;;;;;;94.50;64.50;;;;;;;;5004081;28;51139;-55
2022/01/30 16:10:20;;;;;;;;;88.75;54.50;;;;;;;;5020278;28;51160;-54
2022/01/30 16:16:07;;;;;;;;;86.75;63.25;;;;;;;;5018681;28;51546;-55
2022/01/30 16:18:52;;;;;;;;;84.50;60.75;;;;;;;;5018401;28;51220;-53
2022/01/30 16:21:36;;;;;;;;;92.00;64.25;;;;;;;;5019503;28;51335;-53
2022/01/30 16:24:21;;;;;;;;;89.75;60.25;;;;;;;;5019205;28;51591;-53
2022/01/30 16:27:07;;;;;;;;;89.25;60.25;;;;;;;;5018923;28;51216;-54
2022/01/30 16:29:51;;;;;;;;;85.50;60.75;;;;;;;;5019886;28;51578;-55
2022/01/30 16:32:36;;;;;;;;;81.50;64.00;;;;;;;;5008360;28;51114;-51
2022/01/30 16:35:20;;;;;;;;;79.25;54.50;;;;;;;;5019173;28;51803;-55
2022/01/30 16:38:05;;;;;;;;;97.75;65.50;;;;;;;;5018464;28;51079;-53
2022/01/30 16:40:49;;;;;;;;;94.00;66.00;;;;;;;;5018517;28;51092;-52
2022/01/30 16:43:51;;;;;;;;;97.75;65.25;;;;;;;;5019341;28;51130;-49
2022/01/30 16:47:00;;;;;;;;;88.25;58.50;;;;;;;;5019558;28;51146;-53
2022/01/30 16:49:39;;;;;;;;;84.50;62.50;;;;;;;;5018770;28;51368;-53
2022/01/30 16:52:24;;;;;;;;;85.75;63.00;;;;;;;;5020366;28;51675;-54
2022/01/30 16:55:08;;;;;;;;;88.75;63.50;;;;;;;;5019702;28;51079;-50